Terminal Aerodrome Forecast
Issued by NWS Cleveland, OH

Home | Current Version | Previous Version | Graphics & Text | Print | Product List | Glossary On
Versions: 1 2 3 4 5 6 7 8 9 10 11 12 13 14 15 16 17 18 19 20 21
145
FTUS41 KCLE 172112 AAB
TAFCLE
TAF AMD
KCLE 172112Z 1721/1824 28015G25KT P6SM -SHSN OVC035
     FM180000 28012KT P6SM OVC035
     FM181200 24005KT P6SM BKN035
     FM181800 12007KT P6SM SCT025 OVC040=

USA.gov is the U.S. government's official web portal to all federal, state and local government web resources and services.